Latest Coastal Weather Observations for Port Hedland

IDW60701

Issued at 8:22 pm WST Friday 4 September 2015 (issued every 10 minutes, with the page automatically refreshed every 10 minutes)

About coastal observations | Map of coastal stations | Coastal observations for WA | Marine services | Other Formats
Station Details ID: 004032 Name: PORT HEDLAND AIRPORT Lat: -20.37 Lon: 118.63 Height: 6.4 m
Data from the previous 72 hours. | See also: Recent months at Port Hedland
Date/Time
WST
Temp

°C
Wind Pressure Rain
since 9am
mm
Weather Cloud Vis
km
Sea
Height
m
Swell
Dir
 
Speed
knots
Gust
knots
hPa Trend Height
m
Period
s
Dir
04/08:00pm 18.7 NW 6 7 1017.8 - 0.0 - - 10 - - - -
04/07:30pm 19.0 NW 6 6 1017.5 - 0.0 - - 10 - - - -
04/07:00pm 19.4 NW 7 8 1017.2 - 0.0 - - 10 - - - -
04/06:30pm 20.7 NW 7 8 1016.7 - 0.0 - - 10 - - - -
04/06:00pm 22.2 NW 9 11 1016.5 - 0.0 - - 10 - - - -
04/05:30pm 24.1 NNW 8 10 1016.3 - 0.0 - - 10 - - - -
04/05:00pm 25.5 NW 9 13 1016.0 - 0.0 - - 10 - - - -
04/04:30pm 26.2 WNW 12 15 1015.8 - 0.0 - - 10 - - - -
04/04:00pm 26.1 NW 13 17 1015.9 - 0.0 - - 10 - - - -
04/03:30pm 26.7 NW 14 18 1015.8 - 0.0 - - 10 - - - -
04/03:00pm 26.6 NNW 15 19 1015.8 - 0.0 - - 10 - - - -
04/02:30pm 26.9 NW 14 19 1015.9 - 0.0 - - 10 - - - -
04/02:00pm 27.1 NW 13 16 1016.2 - 0.0 - - 10 - - - -
04/01:30pm 27.2 NW 12 16 1016.5 - 0.0 - - 10 - - - -
04/01:00pm 27.0 NW 12 15 1016.7 - 0.0 - - 10 - - - -
04/12:30pm 26.8 NNW 11 16 1017.1 - 0.0 - - 10 - - - -
04/12:00pm 26.6 NNW 10 12 1017.3 - 0.0 - - 10 - - - -
04/11:30am 26.9 NNW 9 12 1017.8 - 0.0 - - 10 - - - -
04/11:00am 25.6 N 9 14 1018.1 - 0.0 - - 10 - - - -
04/10:30am 25.6 NNW 7 11 1018.2 - 0.0 - - 10 - - - -
04/10:00am 24.6 NNW 7 9 1018.4 - 0.0 - - 10 - - - -
04/09:30am 23.7 NNE 7 9 1018.5 - 0.0 - - 10 - - - -
04/09:00am 23.5 N 6 8 1018.4 - 0.0 - - 10 - - - -
04/08:30am 22.9 NW 5 6 1018.2 - 0.0 - - 10 - - - -
04/08:00am 21.4 WSW 2 5 1017.9 - 0.0 - - 10 - - - -
04/07:30am 19.6 CALM 0 1 1017.8 - 0.0 - - 10 - - - -
04/07:00am 16.1 ESE 5 5 1017.7 - 0.0 - - 10 - - - -
04/06:30am 14.5 SE 4 5 1017.5 - 0.0 - - 10 - - - -
04/06:00am 14.4 ESE 3 4 1017.2 - 0.0 - - 10 - - - -
04/05:30am 14.4 CALM 0 0 1016.7 - 0.0 - - 10 - - - -
04/05:00am 14.3 CALM 0 0 1016.5 - 0.0 - - 10 - - - -
04/04:30am 14.5 CALM 0 0 1016.4 - 0.0 - - 10 - - - -
04/04:00am 14.6 CALM 0 0 1016.2 - 0.0 - - 10 - - - -
04/03:30am 15.5 WSW 3 4 1016.3 - 0.0 - - 10 - - - -
04/03:00am 16.0 WSW 3 3 1016.4 - 0.0 - - 10 - - - -
04/02:30am 16.9 SW 2 4 1016.7 - 0.0 - - 10 - - - -
04/02:00am 16.8 SW 5 6 1016.9 - 0.0 - - 10 - - - -
04/01:30am 17.2 SW 6 6 1017.1 - 0.0 - - 10 - - - -
04/01:00am 16.9 SW 7 8 1017.2 - 0.0 - - 10 - - - -
04/12:30am 17.2 WSW 5 7 1017.6 - 0.0 - Partly cloudy 10 - - - -
04/12:00am 17.4 CALM 0 0 1017.9 - 0.0 - - 10 - - - -
 
Date/Time
WST
Temp

°C
Wind Pressure Rain
since 9am
mm
Weather Cloud Vis
km
Sea
Height
m
Swell
Dir
 
Speed
knots
Gust
knots
hPa Trend Height
m
Period
s
Dir
03/11:30pm 17.8 CALM 0 0 1017.9 - 0.0 - - 10 - - - -
03/11:00pm 18.2 CALM 0 0 1017.8 - 0.0 - - 10 - - - -
03/10:30pm 17.9 CALM 0 0 1018.0 - 0.0 - - 10 - - - -
03/10:00pm 18.2 CALM 0 0 1018.1 - 0.0 - - 10 - - - -
03/09:30pm 19.0 WNW 2 3 1018.0 - 0.0 - - 10 - - - -
03/09:00pm 18.9 WNW 3 4 1018.1 - 0.0 - - 10 - - - -
03/08:30pm 19.0 WNW 4 5 1018.0 - 0.0 - - 10 - - - -
03/08:00pm 19.4 WNW 4 5 1017.9 - 0.0 - - 10 - - - -
03/07:30pm 19.7 WNW 5 5 1017.6 - 0.0 - - 10 - - - -
03/07:00pm 20.0 WNW 6 7 1017.2 - 0.0 - - 10 - - - -
03/06:30pm 21.0 WNW 6 7 1016.9 - 0.0 - - 10 - - - -
03/06:00pm 22.2 NW 8 10 1016.6 - 0.0 - - 10 - - - -
03/05:30pm 23.7 NNW 11 14 1016.4 - 0.0 - - 10 - - - -
03/05:00pm 24.5 NNW 13 16 1016.3 - 0.0 - - 10 - - - -
03/04:30pm 25.2 NNW 13 16 1016.3 - 0.0 - - 10 - - - -
03/04:00pm 26.1 N 11 14 1016.2 - 0.0 - - 10 - - - -
03/03:30pm 25.6 N 11 14 1016.1 - 0.0 - - 10 - - - -
03/03:00pm 26.2 N 11 16 1016.0 R 0.0 Fine Clear 30 - - - -
03/02:30pm 27.0 N 11 15 1016.0 - 0.0 - - 10 - - - -
03/02:00pm 26.5 N 13 16 1016.0 - 0.0 - - 10 - - - -
03/01:30pm 27.7 N 13 16 1016.0 - 0.0 - - 10 - - - -
03/01:00pm 28.5 N 11 12 1016.0 - 0.0 - - 10 - - - -
03/12:30pm 28.4 N 11 13 1016.3 - 0.0 - - 10 - - - -
03/12:00pm 28.0 NNE 11 14 1016.6 R 0.0 Fine Clear 30 - - - -
03/11:30am 27.5 NNE 12 14 1017.0 - 0.0 - - 10 - - - -
03/11:00am 27.0 NNE 12 15 1017.4 - 0.0 - - 10 - - - -
03/10:30am 28.2 ENE 11 15 1017.6 - 0.0 - - 10 - - - -
03/10:00am 27.7 E 11 17 1017.8 - 0.0 - - 10 - - - -
03/09:30am 26.5 ESE 12 17 1017.9 - 0.0 - - 10 - - - -
03/09:00am 25.5 E 13 19 1017.9 F 0.0 Fine Clear 30 - - - -
03/08:30am 24.6 SE 7 10 1017.9 - 0.0 - - 10 - - - -
03/08:00am 22.7 SSE 6 8 1018.0 - 0.0 - - 10 - - - -
03/07:30am 19.1 SSE 5 6 1017.9 - 0.0 - - 10 - - - -
03/07:00am 16.0 S 5 6 1017.6 - 0.0 - - 10 - - - -
03/06:30am 14.1 S 4 4 1017.3 - 0.0 - - 10 - - - -
03/06:00am 14.7 SSE 3 5 1016.9 F 0.0 Fine Clear 30 - - - -
03/05:30am 14.7 S 5 5 1016.9 - 0.0 - - 10 - - - -
03/05:00am 15.1 S 5 6 1016.6 - 0.0 - - 10 - - - -
03/04:30am 15.3 SSE 5 5 1016.6 - 0.0 - - 10 - - - -
03/04:00am 15.4 SE 4 6 1016.5 - 0.0 - - 10 - - - -
03/03:30am 15.8 SE 4 6 1016.5 - 0.0 - - 10 - - - -
03/03:00am 15.9 SE 5 7 1016.7 - 0.0 - - 10 - - - -
03/02:30am 15.9 SSE 7 8 1016.9 - 0.0 - - 10 - - - -
03/02:00am 15.7 S 6 7 1016.8 - 0.0 - - 10 - - - -
03/01:30am 16.8 S 6 7 1016.6 - 0.0 - - 10 - - - -
03/01:00am 17.0 S 6 8 1016.8 - 0.0 - - 10 - - - -
03/12:30am 17.0 SSW 6 7 1017.0 - 0.0 - - 10 - - - -
03/12:00am 17.3 SSW 7 8 1017.2 - 0.0 - - 10 - - - -
 
Date/Time
WST
Temp

°C
Wind Pressure Rain
since 9am
mm
Weather Cloud Vis
km
Sea
Height
m
Swell
Dir
 
Speed
knots
Gust
knots
hPa Trend Height
m
Period
s
Dir
02/11:30pm 17.4 SSW 5 7 1017.2 - 0.0 - - 10 - - - -
02/11:00pm 17.7 SSW 5 6 1017.2 - 0.0 - - 10 - - - -
02/10:30pm 17.9 SSW 6 6 1017.3 - 0.0 - - 10 - - - -
02/10:00pm 18.4 S 5 6 1017.4 - 0.0 - - 10 - - - -
02/09:30pm 18.4 S 4 5 1017.4 - 0.0 - - 10 - - - -
02/09:00pm 19.2 S 4 6 1017.3 - 0.0 - - 10 - - - -
02/08:30pm 19.0 SW 6 7 1017.3 - 0.0 - - 10 - - - -
02/08:00pm 19.8 W 4 5 1016.8 - 0.0 - - 10 - - - -
02/07:30pm 19.7 W 5 5 1016.4 - 0.0 - - 10 - - - -
02/07:00pm 20.5 NW 4 5 1015.7 - 0.0 - - 10 - - - -
02/06:30pm 20.8 NNW 5 6 1015.4 - 0.0 - - 10 - - - -
02/06:00pm 22.7 N 7 8 1015.2 - 0.0 - - 10 - - - -
02/05:30pm 24.1 N 10 12 1015.0 - 0.0 - - 10 - - - -
02/05:00pm 24.6 N 12 14 1014.9 - 0.0 - - 10 - - - -
02/04:30pm 25.3 N 12 16 1014.8 - 0.0 - - 10 - - - -
02/04:00pm 25.5 N 13 17 1014.8 - 0.0 - - 10 - - - -
02/03:30pm 26.7 N 12 15 1014.8 - 0.0 - - 10 - - - -
02/03:00pm 27.6 N 11 15 1014.8 R 0.0 Fine Clear 30 - - - -
02/02:30pm 27.7 N 13 17 1014.9 - 0.0 - - 10 - - - -
02/02:00pm 26.7 N 13 17 1015.1 - 0.0 - - 10 - - - -
02/01:30pm 29.2 NNE 16 20 1015.3 - 0.0 - - 10 - - - -
02/01:00pm 29.3 NNE 13 16 1015.6 - 0.0 - - 10 - - - -
02/12:30pm 29.3 ENE 12 20 1015.9 - 0.0 - - 10 - - - -
02/12:00pm 29.7 E 14 20 1016.4 R 0.0 Fine Clear 30 - - - -
02/11:30am 28.4 E 13 18 1016.8 - 0.0 - - 10 - - - -
02/11:00am 27.5 E 16 22 1017.1 - 0.0 - - 10 - - - -
02/10:30am 27.0 ESE 15 22 1017.2 - 0.0 - - 10 - - - -
02/10:00am 25.8 ESE 15 21 1017.6 - 0.0 - - 10 - - - -
02/09:30am 25.3 E 15 21 1017.6 - 0.0 - - 10 - - - -
02/09:00am 24.9 E 17 22 1017.6 R 0.0 Fine Clear 30 - - - -
02/08:30am 23.9 ESE 17 23 1017.3 - 0.0 - - 10 - - - -
02/08:23am 23.6 ESE 15 21 1017.2 - 0.0 - - 10 - - - -
02/08:00am 21.3 SE 7 9 1017.1 - 0.0 - - 10 - - - -
02/07:30am 17.9 SSE 5 8 1016.8 - 0.0 - - 10 - - - -
02/07:00am 15.5 SE 5 7 1016.5 - 0.0 - - 10 - - - -
02/06:30am 14.3 S 7 8 1015.9 - 0.0 - - 10 - - - -
02/06:00am 14.6 S 7 10 1015.3 F 0.0 Fine Clear 30 - - - -
02/05:30am 15.2 S 7 8 1014.9 - 0.0 - - 10 - - - -
02/05:00am 13.9 SW 6 7 1014.6 - 0.0 - - 10 - - - -
02/04:30am 14.5 SW 6 7 1014.5 - 0.0 - - 10 - - - -
02/04:00am 14.9 SW 7 7 1014.4 - 0.0 - - 10 - - - -
02/03:30am 14.9 SW 6 8 1014.5 - 0.0 - - 10 - - - -
02/03:00am 15.0 WSW 5 7 1014.6 - 0.0 - - 10 - - - -
02/02:30am 16.2 SW 7 7 1014.7 - 0.0 - - 10 - - - -
02/02:00am 16.4 SSW 1 5 1014.8 - 0.0 - - 10 - - - -
02/01:30am 17.8 S 4 5 1015.1 - 0.0 - - 10 - - - -
02/01:00am 18.2 S 4 5 1015.3 - 0.0 - - 10 - - - -
02/12:30am 18.7 SSW 5 6 1015.4 - 0.0 - - 10 - - - -
02/12:00am 18.2 NW 4 6 1015.4 - 0.0 - - 10 - - - -
 
Date/Time
WST
Temp

°C
Wind Pressure Rain
since 9am
mm
Weather Cloud Vis
km
Sea
Height
m
Swell
Dir
 
Speed
knots
Gust
knots
hPa Trend Height
m
Period
s
Dir
01/11:30pm 18.2 NNW 2 3 1015.6 - 0.0 - - 10 - - - -
01/11:00pm 19.2 NNW 2 4 1015.6 - 0.0 - - 10 - - - -
01/10:30pm 19.3 W 8 9 1015.3 - 0.0 - - 10 - - - -
01/10:00pm 20.0 W 8 11 1015.2 - 0.0 - - 10 - - - -
01/09:30pm 20.2 WSW 10 13 1015.2 - 0.0 - - 10 - - - -
01/09:00pm 20.8 W 11 14 1015.1 - 0.0 - - 10 - - - -
01/08:30pm 21.1 W 11 13 1014.8 - 0.0 - - 10 - - - -

Other Formats:

Comma delimited format used in spreadsheet applications
http://www.bom.gov.au/fwo/IDW60701/IDW60701.94312.axf

JavaScript Object Notation format (JSON) in row-major order
http://www.bom.gov.au/fwo/IDW60701/IDW60701.94312.json